sensor_id;sensor_type;location;lat;lon;timestamp;P1;durP1;ratioP1;P2;durP2;ratioP2
16127;SDS011;8168;49.036;7.690;2024-02-04T00:01:08;1.90;;;1.13;;
16127;SDS011;8168;49.036;7.690;2024-02-04T00:03:39;1.20;;;1.10;;
16127;SDS011;8168;49.036;7.690;2024-02-04T00:06:10;1.30;;;1.20;;
16127;SDS011;8168;49.036;7.690;2024-02-04T00:08:41;1.20;;;1.10;;
16127;SDS011;8168;49.036;7.690;2024-02-04T00:11:12;1.17;;;1.00;;
16127;SDS011;8168;49.036;7.690;2024-02-04T00:13:43;1.27;;;1.00;;
16127;SDS011;8168;49.036;7.690;2024-02-04T00:16:14;1.80;;;1.37;;
16127;SDS011;8168;49.036;7.690;2024-02-04T00:18:45;1.77;;;1.20;;
16127;SDS011;8168;49.036;7.690;2024-02-04T00:21:16;1.53;;;0.97;;
16127;SDS011;8168;49.036;7.690;2024-02-04T00:23:47;1.73;;;1.30;;
16127;SDS011;8168;49.036;7.690;2024-02-04T00:26:18;1.10;;;1.10;;
16127;SDS011;8168;49.036;7.690;2024-02-04T00:28:49;1.17;;;1.07;;
16127;SDS011;8168;49.036;7.690;2024-02-04T00:31:20;1.07;;;1.00;;
16127;SDS011;8168;49.036;7.690;2024-02-04T00:33:51;1.77;;;1.27;;
16127;SDS011;8168;49.036;7.690;2024-02-04T00:36:22;1.40;;;1.30;;
16127;SDS011;8168;49.036;7.690;2024-02-04T00:38:53;1.30;;;1.20;;
16127;SDS011;8168;49.036;7.690;2024-02-04T00:41:24;1.20;;;1.10;;
16127;SDS011;8168;49.036;7.690;2024-02-04T00:43:55;1.33;;;1.23;;
16127;SDS011;8168;49.036;7.690;2024-02-04T00:46:26;2.63;;;1.30;;
16127;SDS011;8168;49.036;7.690;2024-02-04T00:48:57;1.23;;;1.10;;
16127;SDS011;8168;49.036;7.690;2024-02-04T00:51:28;1.40;;;1.30;;
16127;SDS011;8168;49.036;7.690;2024-02-04T00:53:59;1.63;;;1.40;;
16127;SDS011;8168;49.036;7.690;2024-02-04T00:56:30;1.70;;;1.57;;
16127;SDS011;8168;49.036;7.690;2024-02-04T00:59:01;1.70;;;1.43;;
16127;SDS011;8168;49.036;7.690;2024-02-04T01:01:32;1.40;;;1.30;;
16127;SDS011;8168;49.036;7.690;2024-02-04T01:04:03;1.10;;;1.00;;
16127;SDS011;8168;49.036;7.690;2024-02-04T01:06:34;1.43;;;1.23;;
16127;SDS011;8168;49.036;7.690;2024-02-04T01:09:05;1.40;;;1.20;;
16127;SDS011;8168;49.036;7.690;2024-02-04T01:11:36;1.43;;;1.20;;
16127;SDS011;8168;49.036;7.690;2024-02-04T01:14:07;1.77;;;1.20;;
16127;SDS011;8168;49.036;7.690;2024-02-04T01:16:38;1.23;;;1.10;;
16127;SDS011;8168;49.036;7.690;2024-02-04T01:19:09;1.47;;;1.00;;
16127;SDS011;8168;49.036;7.690;2024-02-04T01:21:40;1.27;;;1.13;;
16127;SDS011;8168;49.036;7.690;2024-02-04T01:24:11;1.53;;;1.10;;
16127;SDS011;8168;49.036;7.690;2024-02-04T01:26:42;1.20;;;1.10;;
16127;SDS011;8168;49.036;7.690;2024-02-04T01:29:13;1.10;;;1.00;;
16127;SDS011;8168;49.036;7.690;2024-02-04T01:31:44;2.07;;;1.30;;
16127;SDS011;8168;49.036;7.690;2024-02-04T01:34:15;1.20;;;0.97;;
16127;SDS011;8168;49.036;7.690;2024-02-04T01:36:46;3.07;;;1.13;;
16127;SDS011;8168;49.036;7.690;2024-02-04T01:39:17;1.07;;;0.97;;
16127;SDS011;8168;49.036;7.690;2024-02-04T01:41:48;2.37;;;1.27;;
16127;SDS011;8168;49.036;7.690;2024-02-04T01:44:19;1.10;;;1.00;;
16127;SDS011;8168;49.036;7.690;2024-02-04T01:46:52;1.07;;;1.00;;
16127;SDS011;8168;49.036;7.690;2024-02-04T01:49:24;1.30;;;1.20;;
16127;SDS011;8168;49.036;7.690;2024-02-04T01:51:55;1.20;;;1.10;;
16127;SDS011;8168;49.036;7.690;2024-02-04T01:54:27;1.33;;;1.10;;
16127;SDS011;8168;49.036;7.690;2024-02-04T01:57:00;1.20;;;1.10;;
16127;SDS011;8168;49.036;7.690;2024-02-04T01:59:32;1.40;;;1.10;;
16127;SDS011;8168;49.036;7.690;2024-02-04T02:02:03;1.17;;;0.97;;
16127;SDS011;8168;49.036;7.690;2024-02-04T02:04:34;2.80;;;1.20;;
16127;SDS011;8168;49.036;7.690;2024-02-04T02:07:05;1.33;;;1.20;;
16127;SDS011;8168;49.036;7.690;2024-02-04T02:09:37;0.70;;;0.70;;
16127;SDS011;8168;49.036;7.690;2024-02-04T02:14:47;0.97;;;0.87;;
16127;SDS011;8168;49.036;7.690;2024-02-04T02:17:31;0.83;;;0.80;;
16127;SDS011;8168;49.036;7.690;2024-02-04T02:25:33;1.10;;;0.90;;
16127;SDS011;8168;49.036;7.690;2024-02-04T02:28:06;1.23;;;1.10;;
16127;SDS011;8168;49.036;7.690;2024-02-04T02:30:37;1.20;;;1.00;;
16127;SDS011;8168;49.036;7.690;2024-02-04T02:33:08;2.20;;;0.87;;
16127;SDS011;8168;49.036;7.690;2024-02-04T02:35:39;1.50;;;0.90;;
16127;SDS011;8168;49.036;7.690;2024-02-04T02:41:06;1.47;;;1.13;;
16127;SDS011;8168;49.036;7.690;2024-02-04T02:43:39;0.80;;;0.80;;
16127;SDS011;8168;49.036;7.690;2024-02-04T02:46:11;0.80;;;0.80;;
16127;SDS011;8168;49.036;7.690;2024-02-04T02:48:42;0.80;;;0.80;;
16127;SDS011;8168;49.036;7.690;2024-02-04T02:51:13;1.10;;;1.00;;
16127;SDS011;8168;49.036;7.690;2024-02-04T02:53:44;0.67;;;0.67;;
16127;SDS011;8168;49.036;7.690;2024-02-04T02:56:15;1.10;;;1.10;;
16127;SDS011;8168;49.036;7.690;2024-02-04T02:58:46;0.90;;;0.87;;
16127;SDS011;8168;49.036;7.690;2024-02-04T03:01:17;1.17;;;0.90;;
16127;SDS011;8168;49.036;7.690;2024-02-04T03:03:48;1.40;;;0.60;;
16127;SDS011;8168;49.036;7.690;2024-02-04T03:06:19;1.10;;;1.00;;
16127;SDS011;8168;49.036;7.690;2024-02-04T03:08:50;1.20;;;0.97;;
16127;SDS011;8168;49.036;7.690;2024-02-04T03:11:21;0.70;;;0.70;;
16127;SDS011;8168;49.036;7.690;2024-02-04T03:13:52;0.87;;;0.87;;
16127;SDS011;8168;49.036;7.690;2024-02-04T03:16:23;0.70;;;0.70;;
16127;SDS011;8168;49.036;7.690;2024-02-04T03:18:54;1.77;;;0.83;;
16127;SDS011;8168;49.036;7.690;2024-02-04T03:21:25;0.80;;;0.70;;
16127;SDS011;8168;49.036;7.690;2024-02-04T03:23:56;0.73;;;0.73;;
16127;SDS011;8168;49.036;7.690;2024-02-04T03:26:27;1.00;;;0.90;;
16127;SDS011;8168;49.036;7.690;2024-02-04T03:28:58;0.80;;;0.77;;
16127;SDS011;8168;49.036;7.690;2024-02-04T03:31:29;0.80;;;0.80;;
16127;SDS011;8168;49.036;7.690;2024-02-04T03:34:00;0.80;;;0.80;;
16127;SDS011;8168;49.036;7.690;2024-02-04T03:36:31;0.80;;;0.77;;
16127;SDS011;8168;49.036;7.690;2024-02-04T03:39:02;0.63;;;0.63;;
16127;SDS011;8168;49.036;7.690;2024-02-04T03:41:33;1.10;;;1.00;;
16127;SDS011;8168;49.036;7.690;2024-02-04T03:44:04;1.13;;;0.97;;
16127;SDS011;8168;49.036;7.690;2024-02-04T03:46:35;1.00;;;0.90;;
16127;SDS011;8168;49.036;7.690;2024-02-04T03:49:09;1.03;;;0.70;;
16127;SDS011;8168;49.036;7.690;2024-02-04T03:51:40;0.97;;;0.90;;
16127;SDS011;8168;49.036;7.690;2024-02-04T03:54:11;1.63;;;1.30;;
16127;SDS011;8168;49.036;7.690;2024-02-04T03:56:42;2.20;;;0.80;;
16127;SDS011;8168;49.036;7.690;2024-02-04T03:59:13;1.20;;;0.90;;
16127;SDS011;8168;49.036;7.690;2024-02-04T04:01:50;1.10;;;1.00;;
16127;SDS011;8168;49.036;7.690;2024-02-04T04:04:23;1.97;;;0.97;;
16127;SDS011;8168;49.036;7.690;2024-02-04T04:06:56;1.50;;;0.87;;
16127;SDS011;8168;49.036;7.690;2024-02-04T04:09:27;1.90;;;0.80;;
16127;SDS011;8168;49.036;7.690;2024-02-04T04:11:58;1.73;;;0.73;;
16127;SDS011;8168;49.036;7.690;2024-02-04T04:14:29;0.90;;;0.90;;
16127;SDS011;8168;49.036;7.690;2024-02-04T04:17:01;1.57;;;0.80;;
16127;SDS011;8168;49.036;7.690;2024-02-04T04:19:32;1.13;;;1.03;;
16127;SDS011;8168;49.036;7.690;2024-02-04T04:22:05;1.00;;;0.70;;
16127;SDS011;8168;49.036;7.690;2024-02-04T04:24:37;0.70;;;0.70;;
16127;SDS011;8168;49.036;7.690;2024-02-04T04:27:08;0.80;;;0.80;;
16127;SDS011;8168;49.036;7.690;2024-02-04T04:29:39;0.80;;;0.80;;
16127;SDS011;8168;49.036;7.690;2024-02-04T04:32:10;1.10;;;1.00;;
16127;SDS011;8168;49.036;7.690;2024-02-04T04:34:41;2.67;;;0.90;;
16127;SDS011;8168;49.036;7.690;2024-02-04T04:37:12;0.70;;;0.70;;
16127;SDS011;8168;49.036;7.690;2024-02-04T04:39:43;0.60;;;0.60;;
16127;SDS011;8168;49.036;7.690;2024-02-04T04:42:14;0.40;;;0.40;;
16127;SDS011;8168;49.036;7.690;2024-02-04T04:44:45;1.13;;;0.90;;
16127;SDS011;8168;49.036;7.690;2024-02-04T04:47:16;0.63;;;0.63;;
16127;SDS011;8168;49.036;7.690;2024-02-04T04:49:47;2.73;;;0.80;;
16127;SDS011;8168;49.036;7.690;2024-02-04T04:52:18;0.70;;;0.70;;
16127;SDS011;8168;49.036;7.690;2024-02-04T04:54:49;1.27;;;1.00;;
16127;SDS011;8168;49.036;7.690;2024-02-04T04:57:20;1.20;;;0.90;;
16127;SDS011;8168;49.036;7.690;2024-02-04T04:59:51;0.70;;;0.53;;
16127;SDS011;8168;49.036;7.690;2024-02-04T05:02:22;0.90;;;0.90;;
16127;SDS011;8168;49.036;7.690;2024-02-04T05:04:53;0.90;;;0.90;;
16127;SDS011;8168;49.036;7.690;2024-02-04T05:07:24;1.63;;;1.07;;
16127;SDS011;8168;49.036;7.690;2024-02-04T05:09:56;1.00;;;0.70;;
16127;SDS011;8168;49.036;7.690;2024-02-04T05:12:27;0.70;;;0.70;;
16127;SDS011;8168;49.036;7.690;2024-02-04T05:14:57;1.07;;;0.97;;
16127;SDS011;8168;49.036;7.690;2024-02-04T05:17:28;0.73;;;0.67;;
16127;SDS011;8168;49.036;7.690;2024-02-04T05:20:00;0.50;;;0.50;;
16127;SDS011;8168;49.036;7.690;2024-02-04T05:22:32;1.90;;;0.63;;
16127;SDS011;8168;49.036;7.690;2024-02-04T05:25:03;0.80;;;0.80;;
16127;SDS011;8168;49.036;7.690;2024-02-04T05:27:36;0.30;;;0.30;;
16127;SDS011;8168;49.036;7.690;2024-02-04T05:30:07;0.63;;;0.60;;
16127;SDS011;8168;49.036;7.690;2024-02-04T05:32:38;0.70;;;0.70;;
16127;SDS011;8168;49.036;7.690;2024-02-04T05:35:09;2.70;;;0.90;;
16127;SDS011;8168;49.036;7.690;2024-02-04T05:37:40;0.80;;;0.80;;
16127;SDS011;8168;49.036;7.690;2024-02-04T05:40:11;0.80;;;0.80;;
16127;SDS011;8168;49.036;7.690;2024-02-04T05:42:44;0.50;;;0.50;;
16127;SDS011;8168;49.036;7.690;2024-02-04T05:45:15;0.80;;;0.80;;
16127;SDS011;8168;49.036;7.690;2024-02-04T05:47:46;0.70;;;0.67;;
16127;SDS011;8168;49.036;7.690;2024-02-04T05:50:17;0.50;;;0.40;;
16127;SDS011;8168;49.036;7.690;2024-02-04T05:52:48;0.83;;;0.70;;
16127;SDS011;8168;49.036;7.690;2024-02-04T05:55:19;0.43;;;0.43;;
16127;SDS011;8168;49.036;7.690;2024-02-04T05:57:50;0.40;;;0.40;;
16127;SDS011;8168;49.036;7.690;2024-02-04T06:00:21;0.40;;;0.40;;
16127;SDS011;8168;49.036;7.690;2024-02-04T06:02:53;0.50;;;0.50;;
16127;SDS011;8168;49.036;7.690;2024-02-04T06:05:24;0.60;;;0.60;;
16127;SDS011;8168;49.036;7.690;2024-02-04T06:07:55;0.47;;;0.47;;
16127;SDS011;8168;49.036;7.690;2024-02-04T06:10:26;0.63;;;0.63;;
16127;SDS011;8168;49.036;7.690;2024-02-04T06:12:57;0.50;;;0.50;;
16127;SDS011;8168;49.036;7.690;2024-02-04T06:15:28;0.40;;;0.40;;
16127;SDS011;8168;49.036;7.690;2024-02-04T06:17:59;0.53;;;0.53;;
16127;SDS011;8168;49.036;7.690;2024-02-04T06:20:30;0.87;;;0.70;;
16127;SDS011;8168;49.036;7.690;2024-02-04T06:23:01;0.43;;;0.37;;
16127;SDS011;8168;49.036;7.690;2024-02-04T06:25:32;0.10;;;0.10;;
16127;SDS011;8168;49.036;7.690;2024-02-04T06:28:03;0.57;;;0.57;;
16127;SDS011;8168;49.036;7.690;2024-02-04T06:30:34;0.50;;;0.50;;
16127;SDS011;8168;49.036;7.690;2024-02-04T06:33:05;0.60;;;0.53;;
16127;SDS011;8168;49.036;7.690;2024-02-04T06:35:36;0.63;;;0.63;;
16127;SDS011;8168;49.036;7.690;2024-02-04T06:38:07;0.40;;;0.40;;
16127;SDS011;8168;49.036;7.690;2024-02-04T06:40:38;0.60;;;0.60;;
16127;SDS011;8168;49.036;7.690;2024-02-04T06:43:09;0.37;;;0.37;;
16127;SDS011;8168;49.036;7.690;2024-02-04T06:45:40;1.57;;;0.70;;
16127;SDS011;8168;49.036;7.690;2024-02-04T06:48:11;0.83;;;0.80;;
16127;SDS011;8168;49.036;7.690;2024-02-04T06:50:42;0.60;;;0.60;;
16127;SDS011;8168;49.036;7.690;2024-02-04T06:53:15;1.10;;;1.00;;
16127;SDS011;8168;49.036;7.690;2024-02-04T06:55:46;0.83;;;0.80;;
16127;SDS011;8168;49.036;7.690;2024-02-04T06:58:17;0.60;;;0.60;;
16127;SDS011;8168;49.036;7.690;2024-02-04T07:00:48;0.57;;;0.47;;
16127;SDS011;8168;49.036;7.690;2024-02-04T07:03:19;0.70;;;0.47;;
16127;SDS011;8168;49.036;7.690;2024-02-04T07:05:50;0.60;;;0.60;;
16127;SDS011;8168;49.036;7.690;2024-02-04T07:08:21;0.60;;;0.60;;
16127;SDS011;8168;49.036;7.690;2024-02-04T07:10:53;1.60;;;0.77;;
16127;SDS011;8168;49.036;7.690;2024-02-04T07:13:24;0.60;;;0.60;;
16127;SDS011;8168;49.036;7.690;2024-02-04T07:15:55;0.60;;;0.60;;
16127;SDS011;8168;49.036;7.690;2024-02-04T07:18:26;0.70;;;0.43;;
16127;SDS011;8168;49.036;7.690;2024-02-04T07:20:57;0.70;;;0.70;;
16127;SDS011;8168;49.036;7.690;2024-02-04T07:23:28;0.50;;;0.50;;
16127;SDS011;8168;49.036;7.690;2024-02-04T07:25:59;0.93;;;0.60;;
16127;SDS011;8168;49.036;7.690;2024-02-04T07:28:30;0.90;;;0.60;;
16127;SDS011;8168;49.036;7.690;2024-02-04T07:31:01;0.60;;;0.60;;
16127;SDS011;8168;49.036;7.690;2024-02-04T07:33:32;0.73;;;0.50;;
16127;SDS011;8168;49.036;7.690;2024-02-04T07:36:03;0.63;;;0.63;;
16127;SDS011;8168;49.036;7.690;2024-02-04T07:38:34;1.53;;;0.80;;
16127;SDS011;8168;49.036;7.690;2024-02-04T07:41:05;0.50;;;0.50;;
16127;SDS011;8168;49.036;7.690;2024-02-04T07:43:36;1.47;;;0.77;;
16127;SDS011;8168;49.036;7.690;2024-02-04T07:46:07;0.70;;;0.40;;
16127;SDS011;8168;49.036;7.690;2024-02-04T07:48:38;0.80;;;0.80;;
16127;SDS011;8168;49.036;7.690;2024-02-04T07:51:09;0.80;;;0.80;;
16127;SDS011;8168;49.036;7.690;2024-02-04T07:53:40;0.50;;;0.50;;
16127;SDS011;8168;49.036;7.690;2024-02-04T07:56:11;0.60;;;0.60;;
16127;SDS011;8168;49.036;7.690;2024-02-04T07:58:42;0.70;;;0.60;;
16127;SDS011;8168;49.036;7.690;2024-02-04T08:01:13;0.50;;;0.50;;
16127;SDS011;8168;49.036;7.690;2024-02-04T08:03:44;0.40;;;0.40;;
16127;SDS011;8168;49.036;7.690;2024-02-04T08:06:17;0.90;;;0.70;;
16127;SDS011;8168;49.036;7.690;2024-02-04T08:08:48;0.60;;;0.60;;
16127;SDS011;8168;49.036;7.690;2024-02-04T08:11:20;0.80;;;0.60;;
16127;SDS011;8168;49.036;7.690;2024-02-04T08:13:51;0.70;;;0.60;;
16127;SDS011;8168;49.036;7.690;2024-02-04T08:16:22;0.97;;;0.57;;
16127;SDS011;8168;49.036;7.690;2024-02-04T08:18:53;0.40;;;0.40;;
16127;SDS011;8168;49.036;7.690;2024-02-04T08:21:24;0.90;;;0.83;;
16127;SDS011;8168;49.036;7.690;2024-02-04T08:23:55;0.50;;;0.50;;
16127;SDS011;8168;49.036;7.690;2024-02-04T08:26:26;0.97;;;0.70;;
16127;SDS011;8168;49.036;7.690;2024-02-04T08:28:57;0.53;;;0.53;;
16127;SDS011;8168;49.036;7.690;2024-02-04T08:31:29;0.70;;;0.60;;
16127;SDS011;8168;49.036;7.690;2024-02-04T08:34:02;0.57;;;0.57;;
16127;SDS011;8168;49.036;7.690;2024-02-04T08:36:33;0.43;;;0.40;;
16127;SDS011;8168;49.036;7.690;2024-02-04T08:39:04;0.30;;;0.30;;
16127;SDS011;8168;49.036;7.690;2024-02-04T08:41:35;0.73;;;0.70;;
16127;SDS011;8168;49.036;7.690;2024-02-04T08:44:06;0.50;;;0.50;;
16127;SDS011;8168;49.036;7.690;2024-02-04T08:46:37;0.60;;;0.57;;
16127;SDS011;8168;49.036;7.690;2024-02-04T08:49:08;0.60;;;0.60;;
16127;SDS011;8168;49.036;7.690;2024-02-04T08:51:39;0.37;;;0.37;;
16127;SDS011;8168;49.036;7.690;2024-02-04T08:54:10;0.50;;;0.50;;
16127;SDS011;8168;49.036;7.690;2024-02-04T08:56:41;0.60;;;0.50;;
16127;SDS011;8168;49.036;7.690;2024-02-04T08:59:12;0.57;;;0.57;;
16127;SDS011;8168;49.036;7.690;2024-02-04T09:01:43;0.70;;;0.70;;
16127;SDS011;8168;49.036;7.690;2024-02-04T09:04:14;1.13;;;0.80;;
16127;SDS011;8168;49.036;7.690;2024-02-04T09:06:45;1.13;;;0.63;;
16127;SDS011;8168;49.036;7.690;2024-02-04T09:09:16;0.73;;;0.70;;
16127;SDS011;8168;49.036;7.690;2024-02-04T09:11:47;0.53;;;0.53;;
16127;SDS011;8168;49.036;7.690;2024-02-04T09:14:18;1.93;;;0.80;;
16127;SDS011;8168;49.036;7.690;2024-02-04T09:16:49;0.40;;;0.40;;
16127;SDS011;8168;49.036;7.690;2024-02-04T09:19:20;0.47;;;0.47;;
16127;SDS011;8168;49.036;7.690;2024-02-04T09:21:51;0.57;;;0.50;;
16127;SDS011;8168;49.036;7.690;2024-02-04T09:24:22;0.50;;;0.50;;
16127;SDS011;8168;49.036;7.690;2024-02-04T09:26:53;0.60;;;0.60;;
16127;SDS011;8168;49.036;7.690;2024-02-04T09:29:24;0.63;;;0.60;;
16127;SDS011;8168;49.036;7.690;2024-02-04T09:31:55;0.50;;;0.50;;
16127;SDS011;8168;49.036;7.690;2024-02-04T09:34:26;0.97;;;0.60;;
16127;SDS011;8168;49.036;7.690;2024-02-04T09:36:57;0.67;;;0.67;;
16127;SDS011;8168;49.036;7.690;2024-02-04T09:39:28;0.30;;;0.30;;
16127;SDS011;8168;49.036;7.690;2024-02-04T09:41:59;0.50;;;0.50;;
16127;SDS011;8168;49.036;7.690;2024-02-04T09:44:31;0.70;;;0.60;;
16127;SDS011;8168;49.036;7.690;2024-02-04T09:47:03;0.50;;;0.50;;
16127;SDS011;8168;49.036;7.690;2024-02-04T09:49:34;0.70;;;0.70;;
16127;SDS011;8168;49.036;7.690;2024-02-04T09:52:06;1.17;;;0.80;;
16127;SDS011;8168;49.036;7.690;2024-02-04T09:54:42;0.60;;;0.50;;
16127;SDS011;8168;49.036;7.690;2024-02-04T09:57:15;0.43;;;0.43;;
16127;SDS011;8168;49.036;7.690;2024-02-04T09:59:47;0.80;;;0.77;;
16127;SDS011;8168;49.036;7.690;2024-02-04T10:02:18;0.50;;;0.50;;
16127;SDS011;8168;49.036;7.690;2024-02-04T10:04:51;1.37;;;0.80;;
16127;SDS011;8168;49.036;7.690;2024-02-04T10:07:22;0.87;;;0.63;;
16127;SDS011;8168;49.036;7.690;2024-02-04T10:09:54;0.70;;;0.63;;
16127;SDS011;8168;49.036;7.690;2024-02-04T10:12:25;0.73;;;0.73;;
16127;SDS011;8168;49.036;7.690;2024-02-04T10:14:56;0.53;;;0.53;;
16127;SDS011;8168;49.036;7.690;2024-02-04T10:17:27;0.70;;;0.70;;
16127;SDS011;8168;49.036;7.690;2024-02-04T10:19:58;0.50;;;0.50;;
16127;SDS011;8168;49.036;7.690;2024-02-04T10:22:29;1.20;;;0.83;;
16127;SDS011;8168;49.036;7.690;2024-02-04T10:25:09;1.33;;;1.10;;
16127;SDS011;8168;49.036;7.690;2024-02-04T10:27:43;1.70;;;0.90;;
16127;SDS011;8168;49.036;7.690;2024-02-04T10:30:18;0.60;;;0.60;;
16127;SDS011;8168;49.036;7.690;2024-02-04T10:32:51;1.60;;;0.77;;
16127;SDS011;8168;49.036;7.690;2024-02-04T10:35:23;1.50;;;1.03;;
16127;SDS011;8168;49.036;7.690;2024-02-04T10:37:53;0.57;;;0.57;;
16127;SDS011;8168;49.036;7.690;2024-02-04T10:40:24;0.87;;;0.43;;
16127;SDS011;8168;49.036;7.690;2024-02-04T10:42:56;0.77;;;0.57;;
16127;SDS011;8168;49.036;7.690;2024-02-04T10:45:33;2.30;;;1.20;;
16127;SDS011;8168;49.036;7.690;2024-02-04T10:48:06;1.10;;;0.80;;
16127;SDS011;8168;49.036;7.690;2024-02-04T10:50:37;0.80;;;0.80;;
16127;SDS011;8168;49.036;7.690;2024-02-04T10:53:08;1.20;;;0.80;;
16127;SDS011;8168;49.036;7.690;2024-02-04T10:55:43;0.80;;;0.80;;
16127;SDS011;8168;49.036;7.690;2024-02-04T10:58:16;0.90;;;0.83;;
16127;SDS011;8168;49.036;7.690;2024-02-04T11:00:48;1.10;;;1.00;;
16127;SDS011;8168;49.036;7.690;2024-02-04T11:03:20;0.83;;;0.80;;
16127;SDS011;8168;49.036;7.690;2024-02-04T11:05:51;0.70;;;0.67;;
16127;SDS011;8168;49.036;7.690;2024-02-04T11:08:23;1.13;;;0.70;;
16127;SDS011;8168;49.036;7.690;2024-02-04T11:10:54;0.80;;;0.80;;
16127;SDS011;8168;49.036;7.690;2024-02-04T11:13:24;0.30;;;0.20;;
16127;SDS011;8168;49.036;7.690;2024-02-04T11:15:57;1.17;;;1.03;;
16127;SDS011;8168;49.036;7.690;2024-02-04T11:18:35;0.63;;;0.50;;
16127;SDS011;8168;49.036;7.690;2024-02-04T11:27:46;0.90;;;0.90;;
16127;SDS011;8168;49.036;7.690;2024-02-04T11:30:16;1.73;;;0.87;;
16127;SDS011;8168;49.036;7.690;2024-02-04T11:32:47;0.97;;;0.90;;
16127;SDS011;8168;49.036;7.690;2024-02-04T11:35:19;0.87;;;0.87;;
16127;SDS011;8168;49.036;7.690;2024-02-04T11:37:53;0.90;;;0.73;;
16127;SDS011;8168;49.036;7.690;2024-02-04T11:40:29;0.80;;;0.80;;
16127;SDS011;8168;49.036;7.690;2024-02-04T11:43:07;1.23;;;1.10;;
16127;SDS011;8168;49.036;7.690;2024-02-04T11:45:42;1.67;;;1.03;;
16127;SDS011;8168;49.036;7.690;2024-02-04T11:48:13;0.90;;;0.60;;
16127;SDS011;8168;49.036;7.690;2024-02-04T11:50:53;0.73;;;0.73;;
16127;SDS011;8168;49.036;7.690;2024-02-04T11:53:24;1.57;;;1.00;;
16127;SDS011;8168;49.036;7.690;2024-02-04T11:55:59;0.80;;;0.80;;
16127;SDS011;8168;49.036;7.690;2024-02-04T11:58:30;0.87;;;0.80;;
16127;SDS011;8168;49.036;7.690;2024-02-04T12:01:01;1.40;;;0.80;;
16127;SDS011;8168;49.036;7.690;2024-02-04T12:03:33;0.80;;;0.80;;
16127;SDS011;8168;49.036;7.690;2024-02-04T12:06:04;1.63;;;0.97;;
16127;SDS011;8168;49.036;7.690;2024-02-04T12:08:35;1.17;;;1.10;;
16127;SDS011;8168;49.036;7.690;2024-02-04T12:11:06;1.80;;;1.20;;
16127;SDS011;8168;49.036;7.690;2024-02-04T12:13:38;1.30;;;1.20;;
16127;SDS011;8168;49.036;7.690;2024-02-04T12:16:10;1.07;;;0.93;;
16127;SDS011;8168;49.036;7.690;2024-02-04T12:18:47;1.83;;;1.10;;
16127;SDS011;8168;49.036;7.690;2024-02-04T12:21:19;2.07;;;1.33;;
16127;SDS011;8168;49.036;7.690;2024-02-04T12:23:51;1.47;;;1.37;;
16127;SDS011;8168;49.036;7.690;2024-02-04T12:26:22;1.73;;;1.27;;
16127;SDS011;8168;49.036;7.690;2024-02-04T12:28:53;1.10;;;0.90;;
16127;SDS011;8168;49.036;7.690;2024-02-04T12:31:25;1.40;;;0.97;;
16127;SDS011;8168;49.036;7.690;2024-02-04T12:34:01;1.07;;;1.07;;
16127;SDS011;8168;49.036;7.690;2024-02-04T12:36:32;1.20;;;1.07;;
16127;SDS011;8168;49.036;7.690;2024-02-04T12:39:03;1.20;;;1.10;;
16127;SDS011;8168;49.036;7.690;2024-02-04T12:41:37;1.00;;;1.00;;
16127;SDS011;8168;49.036;7.690;2024-02-04T12:44:08;2.20;;;1.30;;
16127;SDS011;8168;49.036;7.690;2024-02-04T12:46:39;2.33;;;2.00;;
16127;SDS011;8168;49.036;7.690;2024-02-04T12:49:11;2.60;;;1.80;;
16127;SDS011;8168;49.036;7.690;2024-02-04T12:51:51;1.77;;;1.10;;
16127;SDS011;8168;49.036;7.690;2024-02-04T12:54:23;1.80;;;1.30;;
16127;SDS011;8168;49.036;7.690;2024-02-04T12:56:54;0.70;;;0.70;;
16127;SDS011;8168;49.036;7.690;2024-02-04T12:59:32;2.70;;;1.23;;
16127;SDS011;8168;49.036;7.690;2024-02-04T13:02:07;4.13;;;2.40;;
16127;SDS011;8168;49.036;7.690;2024-02-04T13:04:38;2.33;;;1.13;;
16127;SDS011;8168;49.036;7.690;2024-02-04T13:07:13;1.53;;;1.23;;
16127;SDS011;8168;49.036;7.690;2024-02-04T13:09:44;2.07;;;1.27;;
16127;SDS011;8168;49.036;7.690;2024-02-04T13:12:15;3.80;;;1.33;;
16127;SDS011;8168;49.036;7.690;2024-02-04T13:14:47;0.93;;;0.93;;
16127;SDS011;8168;49.036;7.690;2024-02-04T13:17:18;3.80;;;1.33;;
16127;SDS011;8168;49.036;7.690;2024-02-04T13:19:49;2.50;;;1.30;;
16127;SDS011;8168;49.036;7.690;2024-02-04T13:22:20;1.43;;;1.27;;
16127;SDS011;8168;49.036;7.690;2024-02-04T13:24:51;1.03;;;1.00;;
16127;SDS011;8168;49.036;7.690;2024-02-04T13:27:22;1.23;;;1.13;;
16127;SDS011;8168;49.036;7.690;2024-02-04T13:29:53;1.50;;;1.10;;
16127;SDS011;8168;49.036;7.690;2024-02-04T13:32:24;1.27;;;1.10;;
16127;SDS011;8168;49.036;7.690;2024-02-04T13:34:55;2.27;;;1.73;;
16127;SDS011;8168;49.036;7.690;2024-02-04T13:37:26;1.20;;;1.10;;
16127;SDS011;8168;49.036;7.690;2024-02-04T13:39:57;1.40;;;1.30;;
16127;SDS011;8168;49.036;7.690;2024-02-04T13:42:28;2.43;;;1.87;;
16127;SDS011;8168;49.036;7.690;2024-02-04T13:44:59;5.60;;;2.90;;
16127;SDS011;8168;49.036;7.690;2024-02-04T13:47:31;1.97;;;1.77;;
16127;SDS011;8168;49.036;7.690;2024-02-04T13:50:02;1.50;;;1.40;;
16127;SDS011;8168;49.036;7.690;2024-02-04T13:52:36;1.20;;;1.10;;
16127;SDS011;8168;49.036;7.690;2024-02-04T13:55:08;2.07;;;1.87;;
16127;SDS011;8168;49.036;7.690;2024-02-04T13:57:38;2.20;;;1.73;;
16127;SDS011;8168;49.036;7.690;2024-02-04T14:00:10;1.97;;;1.47;;
16127;SDS011;8168;49.036;7.690;2024-02-04T14:02:41;1.13;;;1.03;;
16127;SDS011;8168;49.036;7.690;2024-02-04T14:05:12;1.50;;;1.20;;
16127;SDS011;8168;49.036;7.690;2024-02-04T14:07:43;1.70;;;1.37;;
16127;SDS011;8168;49.036;7.690;2024-02-04T14:10:14;4.27;;;2.00;;
16127;SDS011;8168;49.036;7.690;2024-02-04T14:12:45;1.57;;;1.47;;
16127;SDS011;8168;49.036;7.690;2024-02-04T14:15:16;1.40;;;1.30;;
16127;SDS011;8168;49.036;7.690;2024-02-04T14:17:47;2.10;;;1.50;;
16127;SDS011;8168;49.036;7.690;2024-02-04T14:20:19;2.10;;;1.33;;
16127;SDS011;8168;49.036;7.690;2024-02-04T14:22:50;2.60;;;1.83;;
16127;SDS011;8168;49.036;7.690;2024-02-04T14:25:21;1.77;;;1.67;;
16127;SDS011;8168;49.036;7.690;2024-02-04T14:27:54;3.10;;;2.10;;
16127;SDS011;8168;49.036;7.690;2024-02-04T14:30:24;1.83;;;1.50;;
16127;SDS011;8168;49.036;7.690;2024-02-04T14:32:55;0.93;;;0.90;;
16127;SDS011;8168;49.036;7.690;2024-02-04T14:35:27;4.60;;;1.23;;
16127;SDS011;8168;49.036;7.690;2024-02-04T14:37:58;3.13;;;1.47;;
16127;SDS011;8168;49.036;7.690;2024-02-04T14:40:29;2.80;;;1.70;;
16127;SDS011;8168;49.036;7.690;2024-02-04T14:43:00;2.37;;;2.17;;
16127;SDS011;8168;49.036;7.690;2024-02-04T14:45:32;1.80;;;1.63;;
16127;SDS011;8168;49.036;7.690;2024-02-04T14:48:04;2.07;;;1.50;;
16127;SDS011;8168;49.036;7.690;2024-02-04T14:50:35;1.60;;;1.40;;
16127;SDS011;8168;49.036;7.690;2024-02-04T14:53:05;2.03;;;1.50;;
16127;SDS011;8168;49.036;7.690;2024-02-04T14:55:36;1.70;;;1.30;;
16127;SDS011;8168;49.036;7.690;2024-02-04T14:58:07;1.30;;;1.10;;
16127;SDS011;8168;49.036;7.690;2024-02-04T15:00:38;3.90;;;1.43;;
16127;SDS011;8168;49.036;7.690;2024-02-04T15:03:09;1.23;;;1.13;;
16127;SDS011;8168;49.036;7.690;2024-02-04T15:05:41;1.77;;;1.57;;
16127;SDS011;8168;49.036;7.690;2024-02-04T15:08:11;1.37;;;1.27;;
16127;SDS011;8168;49.036;7.690;2024-02-04T15:10:42;1.40;;;1.03;;
16127;SDS011;8168;49.036;7.690;2024-02-04T15:13:13;1.97;;;1.40;;
16127;SDS011;8168;49.036;7.690;2024-02-04T15:15:45;1.53;;;1.40;;
16127;SDS011;8168;49.036;7.690;2024-02-04T15:18:16;2.20;;;1.27;;
16127;SDS011;8168;49.036;7.690;2024-02-04T15:20:48;1.40;;;1.10;;
16127;SDS011;8168;49.036;7.690;2024-02-04T15:23:19;1.70;;;1.60;;
16127;SDS011;8168;49.036;7.690;2024-02-04T15:25:50;1.40;;;1.30;;
16127;SDS011;8168;49.036;7.690;2024-02-04T15:28:23;1.40;;;1.23;;
16127;SDS011;8168;49.036;7.690;2024-02-04T15:30:54;0.90;;;0.90;;
16127;SDS011;8168;49.036;7.690;2024-02-04T15:33:25;1.23;;;1.13;;
16127;SDS011;8168;49.036;7.690;2024-02-04T15:35:58;1.30;;;1.20;;
16127;SDS011;8168;49.036;7.690;2024-02-04T15:38:29;0.57;;;0.57;;
16127;SDS011;8168;49.036;7.690;2024-02-04T15:41:00;1.20;;;1.07;;
16127;SDS011;8168;49.036;7.690;2024-02-04T15:43:31;0.97;;;0.87;;